DRZA/AJY METAR and TAF weather

Enter ICAO airport designator
Station Type Date Time Source
DRZA METAR 2018/07/20 18:00 UTC NOAA

DRZA 201800Z 20012KT 9999 FEW040 36/18 Q1009


Station Type Date Time Source
DRZA Decoded METAR 2018/07/20 18:00 UTC NOAA

Agadez, Niger (DRZA) 16-58N 007-59E 502M
Jul 20, 2018 - 02:00 PM EDT / 2018.07.20 1800 UTC
Wind: from the SSW (200 degrees) at 14 MPH (12 KT):0
Visibility: greater than 7 mile(s):0
Sky conditions: mostly clear
Temperature: 96 F (36 C)
Heat index: 97.7 F (36.5 C):1
Dew Point: 64 F (18 C)
Relative Humidity: 34%
Pressure (altimeter): 29.80 in. Hg (1009 hPa)
ob: DRZA 201800Z 20012KT 9999 FEW040 36/18 Q1009
cycle: 18

Station Type Date Time Source
DRZA TAF 2018/07/20 18:27 UTC NOAA

TAF TAF DRZA 201700Z 2018/2118 28008KT 9999 FEW040 PROB40
TEMPO 2114/2118 0402030KT 2000 BLDU TSRA SCT030 FEW040CB


Example: see airport list